Time;durP1;ratioP1;P1;durP2;ratioP2;P2;SDS_P1;SDS_P2;PMS_P1;PMS_P2;Temp;Humidity;BMP_temperature;BMP_pressure;BME280_temperature;BME280_humidity;BME280_pressure;Samples;Min_cycle;Max_cycle;Signal;HPM_P1;HPM_P2
2023/07/04 00:00:58;;;;;;;;;;;22.20;47.50;;;;;;5047363;28;19920;-59
2023/07/04 00:03:25;;;;;;;;;;;22.20;47.50;;;;;;5055994;28;20264;-59
2023/07/04 00:05:53;;;;;;;;;;;22.20;47.50;;;;;;5045365;28;19927;-59
2023/07/04 00:08:21;;;;;;;;;;;22.20;47.60;;;;;;5041701;28;19921;-59
2023/07/04 00:10:50;;;;;;;;;;;22.10;47.60;;;;;;5045345;28;19931;-59
2023/07/04 00:13:17;;;;;;;;;;;22.10;47.50;;;;;;5040728;28;19928;-59
2023/07/04 00:15:44;;;;;;;;;;;22.20;47.60;;;;;;5050781;28;19920;-59
2023/07/04 00:18:11;;;;;;;;;;;22.10;47.60;;;;;;5036644;28;19991;-59
2023/07/04 00:20:38;;;;;;;;;;;22.10;47.50;;;;;;5038508;28;19926;-59
2023/07/04 00:23:05;;;;;;;;;;;22.10;47.50;;;;;;5049874;28;20012;-59
2023/07/04 00:25:32;;;;;;;;;;;22.10;47.50;;;;;;5031999;28;20003;-59
2023/07/04 00:28:05;;;;;;;;;;;22.10;47.60;;;;;;5037088;28;20313;-59
2023/07/04 00:30:31;;;;;;;;;;;22.10;47.50;;;;;;5039867;28;19921;-59
2023/07/04 00:32:58;;;;;;;;;;;22.10;47.50;;;;;;5054703;28;19928;-59
2023/07/04 00:35:25;;;;;;;;;;;22.10;47.50;;;;;;5066141;28;19932;-59
2023/07/04 00:37:52;;;;;;;;;;;22.10;47.40;;;;;;5055116;28;19921;-59
2023/07/04 00:40:18;;;;;;;;;;;22.10;47.40;;;;;;5035207;28;19920;-59
2023/07/04 00:42:46;;;;;;;;;;;22.10;47.40;;;;;;5065167;28;19925;-59
2023/07/04 00:45:20;;;;;;;;;;;22.10;47.40;;;;;;5047105;28;19921;-59
2023/07/04 00:47:53;;;;;;;;;;;22.00;47.20;;;;;;5060992;28;19928;-59
2023/07/04 00:50:23;;;;;;;;;;;22.00;47.30;;;;;;5067454;28;19966;-59
2023/07/04 00:52:49;;;;;;;;;;;22.00;47.30;;;;;;5060972;28;19924;-59
2023/07/04 00:55:16;;;;;;;;;;;22.00;47.30;;;;;;5045623;28;20358;-59
2023/07/04 00:57:46;;;;;;;;;;;22.00;47.30;;;;;;5037337;28;19921;-59
2023/07/04 01:00:17;;;;;;;;;;;22.00;47.30;;;;;;5044564;28;19927;-59
2023/07/04 01:02:47;;;;;;;;;;;22.00;47.30;;;;;;5041277;28;20004;-59
2023/07/04 01:05:14;;;;;;;;;;;22.00;47.30;;;;;;5042238;28;20032;-59
2023/07/04 01:07:42;;;;;;;;;;;22.00;47.30;;;;;;5042344;28;19921;-59
2023/07/04 01:10:11;;;;;;;;;;;22.00;47.30;;;;;;5029810;28;19924;-59
2023/07/04 01:12:39;;;;;;;;;;;22.00;47.20;;;;;;5047029;28;19932;-60
2023/07/04 01:15:06;;;;;;;;;;;22.00;47.20;;;;;;5062050;28;19929;-59
2023/07/04 01:17:33;;;;;;;;;;;22.00;47.20;;;;;;5039949;28;19924;-59
2023/07/04 01:20:01;;;;;;;;;;;22.00;47.20;;;;;;5047020;28;19927;-59
2023/07/04 01:22:31;;;;;;;;;;;21.90;47.00;;;;;;5039879;28;19921;-59
2023/07/04 01:25:01;;;;;;;;;;;21.90;47.00;;;;;;5043713;28;19920;-59
2023/07/04 01:27:29;;;;;;;;;;;21.90;47.00;;;;;;5039404;28;19986;-59
2023/07/04 01:30:00;;;;;;;;;;;21.90;47.00;;;;;;5042447;28;19935;-59
2023/07/04 01:32:28;;;;;;;;;;;21.90;47.00;;;;;;5024985;28;19921;-59
2023/07/04 01:34:58;;;;;;;;;;;21.90;47.00;;;;;;5048733;28;20010;-59
2023/07/04 01:37:25;;;;;;;;;;;21.90;47.00;;;;;;5042182;28;20015;-58
2023/07/04 01:39:52;;;;;;;;;;;21.90;47.00;;;;;;5036123;28;20306;-59
2023/07/04 01:42:19;;;;;;;;;;;21.90;47.00;;;;;;5043528;28;19920;-58
2023/07/04 01:44:48;;;;;;;;;;;21.90;47.00;;;;;;5042839;28;19975;-59
2023/07/04 01:47:15;;;;;;;;;;;21.90;47.00;;;;;;5039363;28;19933;-58
2023/07/04 01:49:41;;;;;;;;;;;21.90;47.00;;;;;;5042112;28;20047;-59
2023/07/04 01:52:08;;;;;;;;;;;21.90;47.00;;;;;;5060030;28;19925;-59
2023/07/04 01:54:35;;;;;;;;;;;21.90;47.00;;;;;;5040212;28;20281;-59
2023/07/04 01:57:02;;;;;;;;;;;21.80;46.80;;;;;;5040063;28;19975;-60
2023/07/04 01:59:29;;;;;;;;;;;21.80;46.80;;;;;;5039102;28;19970;-58
2023/07/04 02:01:58;;;;;;;;;;;21.80;46.80;;;;;;5032202;28;19929;-58
2023/07/04 02:04:24;;;;;;;;;;;21.80;46.80;;;;;;5056712;28;19967;-58
2023/07/04 02:06:51;;;;;;;;;;;21.80;46.80;;;;;;5043754;28;19931;-58
2023/07/04 02:09:18;;;;;;;;;;;21.80;46.80;;;;;;5040019;28;19921;-59
2023/07/04 02:11:47;;;;;;;;;;;21.80;46.80;;;;;;5037023;28;19921;-59
2023/07/04 02:14:15;;;;;;;;;;;21.80;46.70;;;;;;5035095;28;20148;-59
2023/07/04 02:16:42;;;;;;;;;;;21.80;46.70;;;;;;5057795;28;19920;-58
2023/07/04 02:19:10;;;;;;;;;;;21.80;46.70;;;;;;5045487;28;19928;-58
2023/07/04 02:21:37;;;;;;;;;;;21.80;46.70;;;;;;5035383;28;19920;-59
2023/07/04 02:24:04;;;;;;;;;;;21.80;46.70;;;;;;5063210;28;19927;-59
2023/07/04 02:26:32;;;;;;;;;;;21.70;46.70;;;;;;5031122;28;19921;-59
2023/07/04 02:28:59;;;;;;;;;;;21.70;46.70;;;;;;5052064;28;20375;-59
2023/07/04 02:31:26;;;;;;;;;;;21.70;46.70;;;;;;5061052;28;19925;-58
2023/07/04 02:33:53;;;;;;;;;;;21.70;46.70;;;;;;5041348;28;19943;-57
2023/07/04 02:36:21;;;;;;;;;;;21.70;46.70;;;;;;5053153;28;19921;-58
2023/07/04 02:38:48;;;;;;;;;;;21.70;46.70;;;;;;5044679;28;19925;-59
2023/07/04 02:41:15;;;;;;;;;;;21.80;46.80;;;;;;5064794;28;19946;-59
2023/07/04 02:43:41;;;;;;;;;;;21.70;46.70;;;;;;5046191;28;19921;-58
2023/07/04 02:46:08;;;;;;;;;;;21.70;46.70;;;;;;5033395;28;19924;-58
2023/07/04 02:48:35;;;;;;;;;;;21.70;46.70;;;;;;5060435;28;20416;-58
2023/07/04 02:51:01;;;;;;;;;;;21.70;46.70;;;;;;5041559;28;20368;-59
2023/07/04 02:53:30;;;;;;;;;;;21.70;46.80;;;;;;5052568;28;19925;-59
2023/07/04 02:55:56;;;;;;;;;;;21.70;46.80;;;;;;5037608;28;20440;-57
2023/07/04 02:58:23;;;;;;;;;;;21.70;46.80;;;;;;5032249;28;19923;-58
2023/07/04 03:00:50;;;;;;;;;;;21.70;46.90;;;;;;5036793;28;20351;-58
2023/07/04 03:03:17;;;;;;;;;;;21.70;46.90;;;;;;5052878;28;19955;-57
2023/07/04 03:05:44;;;;;;;;;;;21.70;46.90;;;;;;5034859;28;19925;-58
2023/07/04 03:08:11;;;;;;;;;;;21.70;47.20;;;;;;5035912;28;19921;-59
2023/07/04 03:10:39;;;;;;;;;;;21.70;47.00;;;;;;5041423;28;19921;-58
2023/07/04 03:13:06;;;;;;;;;;;21.70;47.00;;;;;;5042530;28;19920;-58
2023/07/04 03:15:33;;;;;;;;;;;21.70;47.10;;;;;;5041063;28;19920;-58
2023/07/04 03:18:01;;;;;;;;;;;21.70;47.10;;;;;;5038185;28;19920;-59
2023/07/04 03:20:28;;;;;;;;;;;21.70;47.20;;;;;;5053195;28;19974;-59
2023/07/04 03:22:55;;;;;;;;;;;21.70;47.20;;;;;;5032080;28;19921;-60
2023/07/04 03:25:22;;;;;;;;;;;21.60;47.10;;;;;;5031715;28;19928;-59
2023/07/04 03:27:50;;;;;;;;;;;21.60;47.10;;;;;;5031229;28;19921;-59
2023/07/04 03:30:17;;;;;;;;;;;21.60;47.20;;;;;;5059328;28;20303;-58
2023/07/04 03:32:44;;;;;;;;;;;21.60;47.20;;;;;;5043020;28;19920;-59
2023/07/04 03:35:10;;;;;;;;;;;21.60;47.20;;;;;;5055000;28;19920;-57
2023/07/04 03:37:38;;;;;;;;;;;21.60;47.30;;;;;;5050575;28;19954;-59
2023/07/04 03:40:06;;;;;;;;;;;21.60;47.30;;;;;;5037638;28;19974;-58
2023/07/04 03:42:33;;;;;;;;;;;21.60;47.30;;;;;;5043636;28;19921;-58
2023/07/04 03:45:01;;;;;;;;;;;21.60;47.40;;;;;;5026646;28;19920;-59
2023/07/04 03:47:28;;;;;;;;;;;21.60;47.40;;;;;;5035446;28;19953;-58
2023/07/04 03:49:55;;;;;;;;;;;21.60;47.40;;;;;;5041189;28;19931;-59
2023/07/04 03:52:22;;;;;;;;;;;21.60;47.40;;;;;;5046266;28;19924;-58
2023/07/04 03:54:49;;;;;;;;;;;21.60;47.50;;;;;;5038228;28;20436;-58
2023/07/04 03:57:16;;;;;;;;;;;21.60;47.50;;;;;;5040979;28;19924;-58
2023/07/04 03:59:43;;;;;;;;;;;21.60;47.60;;;;;;5032055;28;19920;-58
2023/07/04 04:02:11;;;;;;;;;;;21.60;47.60;;;;;;5035921;28;20363;-59
2023/07/04 04:04:39;;;;;;;;;;;21.60;47.60;;;;;;5038739;28;19921;-57
2023/07/04 04:07:07;;;;;;;;;;;21.60;47.70;;;;;;5040526;28;20011;-57
2023/07/04 04:09:34;;;;;;;;;;;21.60;47.70;;;;;;5041130;28;19926;-58
2023/07/04 04:12:00;;;;;;;;;;;21.60;47.70;;;;;;5058768;28;19925;-58
2023/07/04 04:14:28;;;;;;;;;;;21.60;47.70;;;;;;5020629;28;19925;-59
2023/07/04 04:16:55;;;;;;;;;;;21.60;47.70;;;;;;5046387;28;19920;-58
2023/07/04 04:19:23;;;;;;;;;;;21.60;47.70;;;;;;5045937;28;19924;-58
2023/07/04 04:21:50;;;;;;;;;;;21.60;47.80;;;;;;5042689;28;20424;-56
2023/07/04 04:24:17;;;;;;;;;;;21.60;47.80;;;;;;5047591;28;19925;-57
2023/07/04 04:26:46;;;;;;;;;;;21.60;47.80;;;;;;5036326;28;19971;-57
2023/07/04 04:29:14;;;;;;;;;;;21.60;47.80;;;;;;5035076;28;19920;-58
2023/07/04 04:31:40;;;;;;;;;;;21.60;47.90;;;;;;5035623;28;19920;-58
2023/07/04 04:34:08;;;;;;;;;;;21.60;47.90;;;;;;5036542;28;19924;-55
2023/07/04 04:36:36;;;;;;;;;;;21.60;48.00;;;;;;5030193;28;20003;-56
2023/07/04 04:39:03;;;;;;;;;;;21.60;48.00;;;;;;5042130;28;20015;-58
2023/07/04 04:41:30;;;;;;;;;;;21.60;48.00;;;;;;5040083;28;20247;-58
2023/07/04 04:43:58;;;;;;;;;;;21.60;48.00;;;;;;5061182;28;19932;-58
2023/07/04 04:46:24;;;;;;;;;;;21.60;48.00;;;;;;5043751;28;19920;-57
2023/07/04 04:48:51;;;;;;;;;;;21.60;48.10;;;;;;5041874;28;20363;-59
2023/07/04 04:51:18;;;;;;;;;;;21.60;48.00;;;;;;5057340;28;19921;-57
2023/07/04 04:53:48;;;;;;;;;;;21.60;48.10;;;;;;5048563;28;19933;-58
2023/07/04 04:56:15;;;;;;;;;;;21.60;48.10;;;;;;5066496;28;19925;-58
2023/07/04 04:58:43;;;;;;;;;;;21.60;48.10;;;;;;5049983;28;19921;-58
2023/07/04 05:01:11;;;;;;;;;;;21.60;48.10;;;;;;5034162;28;19971;-57
2023/07/04 05:03:38;;;;;;;;;;;21.60;48.20;;;;;;5026368;28;19920;-58
2023/07/04 05:06:05;;;;;;;;;;;21.60;48.20;;;;;;5036717;28;19976;-58
2023/07/04 05:08:32;;;;;;;;;;;21.60;48.20;;;;;;5039170;28;19950;-58
2023/07/04 05:11:02;;;;;;;;;;;21.60;48.20;;;;;;5044049;28;19970;-59
2023/07/04 05:13:29;;;;;;;;;;;21.60;48.20;;;;;;5033169;28;19928;-58
2023/07/04 05:15:59;;;;;;;;;;;21.60;48.30;;;;;;5049344;28;19993;-58
2023/07/04 05:18:25;;;;;;;;;;;21.60;48.30;;;;;;5030273;28;19921;-59
2023/07/04 05:20:59;;;;;;;;;;;21.60;48.30;;;;;;5051177;28;19924;-58
2023/07/04 05:23:26;;;;;;;;;;;21.60;48.30;;;;;;5024913;28;19920;-58
2023/07/04 05:25:58;;;;;;;;;;;21.60;48.30;;;;;;5062156;28;20315;-59
2023/07/04 05:28:26;;;;;;;;;;;21.60;48.40;;;;;;5061395;28;19924;-59
2023/07/04 05:30:57;;;;;;;;;;;21.60;48.30;;;;;;5035928;28;20215;-59
2023/07/04 05:33:24;;;;;;;;;;;21.60;48.40;;;;;;5059708;28;19924;-59
2023/07/04 05:35:50;;;;;;;;;;;21.60;48.50;;;;;;5049223;28;19921;-59
2023/07/04 05:38:17;;;;;;;;;;;21.60;48.60;;;;;;5035791;28;19932;-58
2023/07/04 05:40:44;;;;;;;;;;;21.60;48.70;;;;;;5052021;28;19967;-58
2023/07/04 05:43:11;;;;;;;;;;;21.60;48.70;;;;;;5042135;28;19994;-58
2023/07/04 05:45:39;;;;;;;;;;;21.60;48.70;;;;;;5038871;28;20050;-58
2023/07/04 05:48:07;;;;;;;;;;;21.60;48.70;;;;;;5032475;28;20027;-58
2023/07/04 05:50:33;;;;;;;;;;;21.60;48.70;;;;;;5036990;28;20375;-58
2023/07/04 05:53:00;;;;;;;;;;;21.60;48.70;;;;;;5051563;28;19921;-58
2023/07/04 05:55:27;;;;;;;;;;;21.60;48.80;;;;;;5035729;28;19967;-58
2023/07/04 05:57:54;;;;;;;;;;;21.60;48.70;;;;;;5025488;28;19932;-58
2023/07/04 06:00:21;;;;;;;;;;;21.60;48.70;;;;;;5046082;28;19927;-58
2023/07/04 06:02:50;;;;;;;;;;;21.60;48.80;;;;;;5033534;28;19943;-58
2023/07/04 06:05:17;;;;;;;;;;;21.60;48.70;;;;;;5049563;28;19925;-58
2023/07/04 06:07:43;;;;;;;;;;;21.60;48.70;;;;;;5045590;28;19933;-58
2023/07/04 06:10:10;;;;;;;;;;;21.60;48.70;;;;;;5051761;28;20023;-58
2023/07/04 06:12:37;;;;;;;;;;;21.60;48.70;;;;;;5036096;28;19921;-58
2023/07/04 06:15:04;;;;;;;;;;;21.60;48.80;;;;;;5048207;28;19921;-57
2023/07/04 06:17:31;;;;;;;;;;;21.60;48.70;;;;;;5037662;28;19920;-58
2023/07/04 06:19:59;;;;;;;;;;;21.60;48.70;;;;;;5051537;28;19921;-58
2023/07/04 06:22:27;;;;;;;;;;;21.60;48.70;;;;;;5034693;28;19966;-58
2023/07/04 06:24:54;;;;;;;;;;;21.60;48.70;;;;;;5053079;28;19920;-58
2023/07/04 06:27:21;;;;;;;;;;;21.60;48.80;;;;;;5043585;28;19952;-58
2023/07/04 06:29:48;;;;;;;;;;;21.60;48.90;;;;;;5040213;28;19925;-58
2023/07/04 06:32:14;;;;;;;;;;;21.60;48.80;;;;;;5037779;28;19928;-57
2023/07/04 06:34:41;;;;;;;;;;;21.60;48.90;;;;;;5040065;28;19924;-59
2023/07/04 06:37:09;;;;;;;;;;;21.60;48.80;;;;;;5045682;28;19920;-59
2023/07/04 06:39:37;;;;;;;;;;;21.70;48.80;;;;;;5042165;28;19944;-58
2023/07/04 06:42:04;;;;;;;;;;;21.70;48.80;;;;;;5021079;28;19920;-58
2023/07/04 06:44:31;;;;;;;;;;;21.70;48.80;;;;;;5046904;28;19975;-59
2023/07/04 06:46:57;;;;;;;;;;;21.70;48.70;;;;;;5038709;28;19931;-58
2023/07/04 06:49:25;;;;;;;;;;;21.70;48.70;;;;;;5060808;28;19952;-58
2023/07/04 06:51:51;;;;;;;;;;;21.70;48.70;;;;;;5052994;28;19921;-58
2023/07/04 06:54:19;;;;;;;;;;;21.70;48.70;;;;;;5066425;28;19920;-59
2023/07/04 06:56:46;;;;;;;;;;;21.70;48.70;;;;;;5062332;28;20428;-58
2023/07/04 06:59:16;;;;;;;;;;;21.70;48.70;;;;;;5041501;28;19927;-58
2023/07/04 07:01:43;;;;;;;;;;;21.70;48.70;;;;;;5038474;28;19920;-58
2023/07/04 07:04:13;;;;;;;;;;;21.70;48.70;;;;;;5060395;28;19924;-58
2023/07/04 07:06:40;;;;;;;;;;;21.70;48.70;;;;;;5038743;28;19921;-58
2023/07/04 07:09:08;;;;;;;;;;;21.70;48.70;;;;;;5065530;28;19920;-59
2023/07/04 07:11:36;;;;;;;;;;;21.70;48.70;;;;;;5036707;28;19967;-57
2023/07/04 07:14:05;;;;;;;;;;;21.70;48.80;;;;;;5045915;28;20394;-58
2023/07/04 07:16:32;;;;;;;;;;;21.70;48.70;;;;;;5064708;28;19991;-59
2023/07/04 07:18:59;;;;;;;;;;;21.70;48.70;;;;;;5045389;28;19920;-58
2023/07/04 07:21:26;;;;;;;;;;;21.70;48.70;;;;;;5042393;28;20484;-60
2023/07/04 07:23:53;;;;;;;;;;;21.80;48.80;;;;;;5045352;28;20263;-59
2023/07/04 07:26:21;;;;;;;;;;;21.80;48.70;;;;;;5040531;28;19925;-60
2023/07/04 07:28:52;;;;;;;;;;;21.80;48.70;;;;;;5043689;28;20398;-59
2023/07/04 07:31:19;;;;;;;;;;;21.70;48.70;;;;;;5037753;28;20313;-59
2023/07/04 07:33:46;;;;;;;;;;;21.80;48.70;;;;;;5047866;28;20350;-59
2023/07/04 07:36:13;;;;;;;;;;;21.80;48.70;;;;;;5030210;28;19925;-60
2023/07/04 07:38:40;;;;;;;;;;;21.80;48.80;;;;;;5043114;28;20382;-58
2023/07/04 07:41:07;;;;;;;;;;;21.80;48.70;;;;;;5040968;28;19920;-59
2023/07/04 07:43:35;;;;;;;;;;;21.80;48.70;;;;;;5054564;28;19952;-58
2023/07/04 07:46:03;;;;;;;;;;;21.80;48.70;;;;;;5042300;28;19928;-59
2023/07/04 07:48:30;;;;;;;;;;;21.80;48.60;;;;;;5048997;28;19924;-59
2023/07/04 07:50:56;;;;;;;;;;;21.80;48.60;;;;;;5065517;28;19966;-57
2023/07/04 07:53:23;;;;;;;;;;;21.80;48.60;;;;;;5044066;28;19929;-60
2023/07/04 07:55:51;;;;;;;;;;;21.80;48.60;;;;;;5037172;28;20396;-60
2023/07/04 07:58:18;;;;;;;;;;;21.80;48.50;;;;;;5063200;28;20374;-60
2023/07/04 08:00:45;;;;;;;;;;;21.80;48.50;;;;;;5033372;28;19921;-58
2023/07/04 08:03:13;;;;;;;;;;;21.80;48.50;;;;;;5029712;28;19921;-59
2023/07/04 08:05:42;;;;;;;;;;;21.80;48.40;;;;;;5043950;28;20094;-60
2023/07/04 08:08:09;;;;;;;;;;;21.80;48.40;;;;;;5058942;28;19978;-59
2023/07/04 08:10:36;;;;;;;;;;;21.80;48.40;;;;;;5026183;28;20445;-60
2023/07/04 08:13:03;;;;;;;;;;;21.80;48.40;;;;;;5070051;28;19921;-59
2023/07/04 08:15:30;;;;;;;;;;;21.80;48.40;;;;;;5041326;28;19921;-58
2023/07/04 08:17:56;;;;;;;;;;;21.80;48.30;;;;;;5046976;28;19924;-58
2023/07/04 08:20:25;;;;;;;;;;;21.80;48.30;;;;;;5054150;28;19920;-60
2023/07/04 08:22:53;;;;;;;;;;;21.80;48.20;;;;;;5045932;28;20394;-59
2023/07/04 08:25:20;;;;;;;;;;;21.90;48.30;;;;;;5043633;28;19979;-60
2023/07/04 08:27:47;;;;;;;;;;;21.90;48.20;;;;;;5065909;28;19989;-59
2023/07/04 08:30:14;;;;;;;;;;;21.90;48.10;;;;;;5045085;28;20283;-59
2023/07/04 08:32:41;;;;;;;;;;;21.90;48.00;;;;;;5042721;28;19950;-58
2023/07/04 08:35:08;;;;;;;;;;;21.90;47.90;;;;;;5065292;28;19924;-59
2023/07/04 08:37:37;;;;;;;;;;;21.90;47.90;;;;;;5045657;28;19928;-59
2023/07/04 08:40:05;;;;;;;;;;;21.90;47.80;;;;;;5033833;28;20023;-58
2023/07/04 08:42:33;;;;;;;;;;;21.90;47.80;;;;;;5045197;28;19920;-59
2023/07/04 08:44:59;;;;;;;;;;;21.90;47.70;;;;;;5045355;28;19931;-59
2023/07/04 08:47:26;;;;;;;;;;;21.90;47.70;;;;;;5045764;28;19920;-58
2023/07/04 08:49:54;;;;;;;;;;;21.90;47.70;;;;;;5048886;28;19928;-59
2023/07/04 08:52:23;;;;;;;;;;;21.90;47.70;;;;;;5042950;28;19925;-60
2023/07/04 08:54:51;;;;;;;;;;;21.90;47.70;;;;;;5051167;28;20359;-61
2023/07/04 08:57:24;;;;;;;;;;;21.90;47.70;;;;;;5050896;28;19921;-60
2023/07/04 08:59:52;;;;;;;;;;;21.90;47.60;;;;;;5053840;28;19960;-60
2023/07/04 09:02:28;;;;;;;;;;;21.90;47.60;;;;;;5048172;28;19921;-60
2023/07/04 09:04:56;;;;;;;;;;;21.90;47.60;;;;;;5053858;28;19931;-60
2023/07/04 09:07:25;;;;;;;;;;;21.90;47.50;;;;;;5041077;28;19920;-60
2023/07/04 09:09:55;;;;;;;;;;;22.00;47.60;;;;;;5069095;28;19920;-59
2023/07/04 09:12:22;;;;;;;;;;;21.90;47.50;;;;;;5043934;28;20016;-59
2023/07/04 09:14:50;;;;;;;;;;;22.00;47.60;;;;;;5038424;28;19920;-59
2023/07/04 09:17:18;;;;;;;;;;;22.00;47.50;;;;;;5045550;28;19925;-60
2023/07/04 09:19:45;;;;;;;;;;;21.90;47.40;;;;;;5046143;28;19921;-59
2023/07/04 09:22:12;;;;;;;;;;;22.00;47.50;;;;;;5043331;28;19921;-59
2023/07/04 09:24:38;;;;;;;;;;;22.00;47.50;;;;;;5063886;28;19927;-61
2023/07/04 09:27:07;;;;;;;;;;;22.00;47.50;;;;;;5065412;28;19927;-59
2023/07/04 09:29:35;;;;;;;;;;;22.00;47.50;;;;;;5042073;28;19943;-60
2023/07/04 09:32:02;;;;;;;;;;;22.00;47.40;;;;;;5042876;28;20285;-59
2023/07/04 09:34:30;;;;;;;;;;;22.00;47.30;;;;;;5044287;28;20277;-60
2023/07/04 09:36:57;;;;;;;;;;;22.00;47.30;;;;;;5044559;28;20248;-59
2023/07/04 09:39:24;;;;;;;;;;;22.00;47.30;;;;;;5047127;28;19928;-59
2023/07/04 09:41:56;;;;;;;;;;;22.00;47.30;;;;;;5060154;28;19932;-58
2023/07/04 09:44:27;;;;;;;;;;;22.00;47.20;;;;;;5045998;28;19931;-59
2023/07/04 09:46:54;;;;;;;;;;;22.00;47.20;;;;;;5042762;28;19927;-59
2023/07/04 09:49:25;;;;;;;;;;;22.00;47.10;;;;;;5046330;28;19928;-59
2023/07/04 09:51:59;;;;;;;;;;;22.00;47.00;;;;;;5041808;28;20270;-59
2023/07/04 09:54:26;;;;;;;;;;;22.00;47.00;;;;;;5062820;28;20615;-59
2023/07/04 09:56:53;;;;;;;;;;;22.00;47.00;;;;;;5044421;28;20315;-61
2023/07/04 09:59:20;;;;;;;;;;;22.00;47.00;;;;;;5044844;28;20371;-58
2023/07/04 10:01:48;;;;;;;;;;;22.00;46.90;;;;;;5053344;28;19940;-59
2023/07/04 10:04:24;;;;;;;;;;;22.00;46.90;;;;;;5044009;28;19925;-61
2023/07/04 10:06:51;;;;;;;;;;;22.00;46.90;;;;;;5060345;28;19932;-58
2023/07/04 10:09:20;;;;;;;;;;;22.00;46.90;;;;;;5043071;28;20074;-60
2023/07/04 10:11:47;;;;;;;;;;;22.00;46.90;;;;;;5063772;28;19963;-59
2023/07/04 10:14:14;;;;;;;;;;;22.00;46.90;;;;;;5042479;28;19924;-60
2023/07/04 10:16:44;;;;;;;;;;;22.00;46.90;;;;;;5043658;28;20019;-60
2023/07/04 10:19:13;;;;;;;;;;;22.10;46.90;;;;;;5042759;28;19934;-60
2023/07/04 10:21:41;;;;;;;;;;;22.10;46.90;;;;;;5046539;28;20325;-63
2023/07/04 10:24:08;;;;;;;;;;;22.10;46.80;;;;;;5042812;28;19990;-60
2023/07/04 10:26:35;;;;;;;;;;;22.00;46.60;;;;;;5044361;28;19921;-58
2023/07/04 10:29:02;;;;;;;;;;;22.10;46.50;;;;;;5043857;28;20325;-59
2023/07/04 10:31:29;;;;;;;;;;;22.10;46.50;;;;;;5044240;28;19921;-60
2023/07/04 10:33:57;;;;;;;;;;;22.10;46.40;;;;;;5047677;28;20363;-59
2023/07/04 10:36:27;;;;;;;;;;;22.10;46.20;;;;;;5039578;28;19938;-58
2023/07/04 10:38:55;;;;;;;;;;;22.10;46.00;;;;;;5062162;28;19928;-59
2023/07/04 10:41:22;;;;;;;;;;;22.00;45.80;;;;;;5061368;28;19932;-58
2023/07/04 10:43:50;;;;;;;;;;;22.00;45.60;;;;;;5041088;28;19921;-59
2023/07/04 10:46:17;;;;;;;;;;;22.00;45.40;;;;;;5035590;28;19925;-58
2023/07/04 10:48:44;;;;;;;;;;;22.00;45.20;;;;;;5035055;28;19924;-59
2023/07/04 10:51:14;;;;;;;;;;;22.00;45.10;;;;;;5034393;28;19949;-59
2023/07/04 10:53:42;;;;;;;;;;;22.00;44.90;;;;;;5054685;28;19920;-59
2023/07/04 10:56:10;;;;;;;;;;;22.00;44.90;;;;;;5037824;28;19925;-59
2023/07/04 10:58:37;;;;;;;;;;;22.00;44.90;;;;;;5041915;28;20291;-59
2023/07/04 11:01:06;;;;;;;;;;;22.00;44.90;;;;;;5033474;28;20425;-60
2023/07/04 11:03:38;;;;;;;;;;;22.00;45.00;;;;;;5041536;28;19995;-61
2023/07/04 11:06:08;;;;;;;;;;;22.00;45.10;;;;;;5044070;28;19920;-57
2023/07/04 11:08:35;;;;;;;;;;;22.00;45.30;;;;;;5044834;28;20003;-60
2023/07/04 11:11:06;;;;;;;;;;;22.00;45.40;;;;;;5041819;28;19925;-58
2023/07/04 11:13:33;;;;;;;;;;;22.00;45.50;;;;;;5043287;28;19928;-59
2023/07/04 11:16:03;;;;;;;;;;;22.00;45.60;;;;;;5065022;28;19920;-61
2023/07/04 11:18:33;;;;;;;;;;;22.00;45.60;;;;;;5060049;28;19932;-59
2023/07/04 11:21:07;;;;;;;;;;;22.10;45.80;;;;;;5040094;28;19920;-59
2023/07/04 11:23:43;;;;;;;;;;;22.10;45.80;;;;;;5042901;28;19921;-61
2023/07/04 11:26:11;;;;;;;;;;;22.10;45.80;;;;;;5058985;28;20404;-59
2023/07/04 11:28:43;;;;;;;;;;;22.10;45.80;;;;;;5043716;28;20454;-59
2023/07/04 11:31:14;;;;;;;;;;;22.20;45.90;;;;;;5041451;28;19921;-61
2023/07/04 11:33:41;;;;;;;;;;;22.20;45.90;;;;;;5032862;28;19921;-59
2023/07/04 11:36:09;;;;;;;;;;;22.20;46.00;;;;;;5038760;28;19927;-59
2023/07/04 11:38:36;;;;;;;;;;;22.20;46.00;;;;;;5039773;28;19921;-59
2023/07/04 11:41:03;;;;;;;;;;;22.20;46.10;;;;;;5034089;28;19921;-58
2023/07/04 11:43:33;;;;;;;;;;;22.20;46.30;;;;;;5034765;28;19924;-59
2023/07/04 11:46:00;;;;;;;;;;;22.20;46.10;;;;;;5033646;28;20421;-60
2023/07/04 11:48:28;;;;;;;;;;;22.20;46.10;;;;;;5056468;28;19928;-60
2023/07/04 11:50:59;;;;;;;;;;;22.20;46.10;;;;;;5034025;28;19921;-59
2023/07/04 11:53:34;;;;;;;;;;;22.20;46.20;;;;;;5047817;28;19975;-58
2023/07/04 11:56:14;;;;;;;;;;;22.20;46.10;;;;;;5049433;28;19921;-58
2023/07/04 11:58:43;;;;;;;;;;;22.20;46.20;;;;;;5030924;28;19927;-60
2023/07/04 12:01:09;;;;;;;;;;;22.30;46.30;;;;;;5030401;28;19929;-59
2023/07/04 12:03:43;;;;;;;;;;;22.30;46.20;;;;;;5048047;28;19920;-59
2023/07/04 12:06:10;;;;;;;;;;;22.30;46.00;;;;;;5031500;28;19963;-58
2023/07/04 12:08:38;;;;;;;;;;;22.30;45.40;;;;;;5039440;28;19947;-59
2023/07/04 12:11:06;;;;;;;;;;;22.30;44.90;;;;;;5031851;28;20286;-58
2023/07/04 12:13:34;;;;;;;;;;;22.20;44.60;;;;;;5029091;28;20259;-60
2023/07/04 12:16:03;;;;;;;;;;;22.20;44.50;;;;;;5031621;28;19920;-58
2023/07/04 12:18:30;;;;;;;;;;;22.20;44.60;;;;;;5049429;28;19975;-59
2023/07/04 12:20:57;;;;;;;;;;;22.20;44.80;;;;;;5049521;28;19928;-59
2023/07/04 12:23:24;;;;;;;;;;;22.20;45.00;;;;;;5047499;28;19975;-60
2023/07/04 12:25:51;;;;;;;;;;;22.20;44.80;;;;;;5051987;28;19979;-59
2023/07/04 12:28:18;;;;;;;;;;;22.20;44.70;;;;;;5052389;28;19971;-61
2023/07/04 12:30:48;;;;;;;;;;;22.20;44.50;;;;;;5052132;28;19920;-60
2023/07/04 12:33:23;;;;;;;;;;;22.10;44.30;;;;;;5053429;28;19951;-60
2023/07/04 12:35:54;;;;;;;;;;;22.20;44.30;;;;;;5052045;28;19921;-60
2023/07/04 12:38:22;;;;;;;;;;;22.10;44.10;;;;;;5047904;28;19921;-59
2023/07/04 12:40:49;;;;;;;;;;;22.10;43.80;;;;;;5053390;28;19978;-59
2023/07/04 12:43:16;;;;;;;;;;;22.10;43.50;;;;;;5053069;28;19944;-60
2023/07/04 12:45:43;;;;;;;;;;;22.10;43.20;;;;;;5053559;28;19927;-58
2023/07/04 12:48:10;;;;;;;;;;;22.10;42.70;;;;;;5035269;28;19921;-58
2023/07/04 12:50:38;;;;;;;;;;;22.00;42.30;;;;;;5033310;28;19921;-59
2023/07/04 12:53:05;;;;;;;;;;;22.00;42.30;;;;;;5035969;28;19927;-58
2023/07/04 12:55:32;;;;;;;;;;;22.00;42.30;;;;;;5036677;28;19921;-58
2023/07/04 12:57:59;;;;;;;;;;;22.00;42.30;;;;;;5056804;28;19990;-59
2023/07/04 13:00:27;;;;;;;;;;;21.90;42.50;;;;;;5038638;28;19921;-59
2023/07/04 13:02:54;;;;;;;;;;;21.90;42.50;;;;;;5038809;28;19964;-59
2023/07/04 13:05:21;;;;;;;;;;;21.90;42.70;;;;;;5036871;28;20260;-60
2023/07/04 13:07:49;;;;;;;;;;;21.90;42.90;;;;;;5038913;28;19921;-59
2023/07/04 13:10:20;;;;;;;;;;;21.90;42.80;;;;;;5038800;28;19921;-60
2023/07/04 13:12:46;;;;;;;;;;;21.90;42.70;;;;;;5039516;28;19921;-60
2023/07/04 13:15:19;;;;;;;;;;;21.90;42.40;;;;;;5039298;28;19974;-60
2023/07/04 13:17:55;;;;;;;;;;;21.90;42.20;;;;;;5039201;28;19970;-61
2023/07/04 13:20:23;;;;;;;;;;;21.90;42.10;;;;;;5039045;28;19921;-61
2023/07/04 13:22:51;;;;;;;;;;;21.80;42.20;;;;;;5036896;28;19924;-60
2023/07/04 13:25:19;;;;;;;;;;;21.80;42.40;;;;;;5038626;28;19920;-61
2023/07/04 13:27:45;;;;;;;;;;;21.80;42.60;;;;;;5038408;28;19920;-60
2023/07/04 13:30:22;;;;;;;;;;;21.80;42.80;;;;;;5039177;28;19921;-59
2023/07/04 13:32:49;;;;;;;;;;;21.80;42.90;;;;;;5038287;28;19991;-60
2023/07/04 13:35:27;;;;;;;;;;;21.80;42.70;;;;;;5039067;28;19921;-60
2023/07/04 13:37:55;;;;;;;;;;;21.80;42.60;;;;;;5036121;28;19925;-60
2023/07/04 13:40:22;;;;;;;;;;;21.80;42.40;;;;;;5037756;28;19928;-60
2023/07/04 13:43:02;;;;;;;;;;;21.80;42.60;;;;;;5057671;28;19920;-60
2023/07/04 13:45:28;;;;;;;;;;;21.80;42.70;;;;;;5057724;28;19927;-60
2023/07/04 13:47:55;;;;;;;;;;;21.80;42.80;;;;;;5057635;28;19927;-59
2023/07/04 13:50:22;;;;;;;;;;;21.80;42.90;;;;;;5057942;28;19925;-60
2023/07/04 13:52:48;;;;;;;;;;;21.80;43.10;;;;;;5034761;28;19921;-60
2023/07/04 13:55:17;;;;;;;;;;;21.90;43.30;;;;;;5018312;28;19921;-61
2023/07/04 13:57:44;;;;;;;;;;;21.90;43.40;;;;;;5017686;28;19967;-59
2023/07/04 14:00:11;;;;;;;;;;;21.90;43.50;;;;;;5036059;28;19943;-59
2023/07/04 14:02:38;;;;;;;;;;;21.90;43.60;;;;;;5048044;28;20351;-60
2023/07/04 14:05:05;;;;;;;;;;;21.90;43.60;;;;;;5055421;28;19924;-61
2023/07/04 14:07:32;;;;;;;;;;;22.00;43.80;;;;;;5040516;28;19920;-60
2023/07/04 14:09:59;;;;;;;;;;;22.00;43.80;;;;;;5038258;28;20020;-60
2023/07/04 14:12:28;;;;;;;;;;;22.00;43.90;;;;;;5037849;28;19921;-61
2023/07/04 14:14:55;;;;;;;;;;;22.00;43.90;;;;;;5046309;28;19931;-59
2023/07/04 14:17:21;;;;;;;;;;;22.00;44.60;;;;;;5046448;28;20422;-59
2023/07/04 14:19:48;;;;;;;;;;;22.00;44.00;;;;;;5044646;28;19920;-60